sensor_id;sensor_type;location;lat;lon;timestamp;P1;durP1;ratioP1;P2;durP2;ratioP2
21593;SDS011;10959;51.328;7.322;2023-10-31T06:39:31;5.40;;;4.40;;
21593;SDS011;10959;51.328;7.322;2023-10-31T06:41:58;5.60;;;5.10;;
21593;SDS011;10959;51.328;7.322;2023-10-31T06:44:25;6.07;;;5.13;;
21593;SDS011;10959;51.328;7.322;2023-10-31T06:46:51;5.13;;;4.73;;
21593;SDS011;10959;51.328;7.322;2023-10-31T06:49:18;5.47;;;4.97;;
21593;SDS011;10959;51.328;7.322;2023-10-31T06:51:45;5.13;;;4.73;;
21593;SDS011;10959;51.328;7.322;2023-10-31T06:54:12;5.57;;;5.07;;
21593;SDS011;10959;51.328;7.322;2023-10-31T06:56:40;6.60;;;5.97;;
21593;SDS011;10959;51.328;7.322;2023-10-31T06:59:06;5.40;;;4.90;;
21593;SDS011;10959;51.328;7.322;2023-10-31T07:01:33;6.17;;;5.13;;
21593;SDS011;10959;51.328;7.322;2023-10-31T07:04:00;6.00;;;5.40;;
21593;SDS011;10959;51.328;7.322;2023-10-31T07:06:27;5.30;;;4.87;;
21593;SDS011;10959;51.328;7.322;2023-10-31T07:08:53;6.20;;;4.83;;
21593;SDS011;10959;51.328;7.322;2023-10-31T07:11:19;6.27;;;5.73;;
21593;SDS011;10959;51.328;7.322;2023-10-31T07:13:47;5.97;;;5.43;;
21593;SDS011;10959;51.328;7.322;2023-10-31T07:16:14;5.43;;;4.97;;
21593;SDS011;10959;51.328;7.322;2023-10-31T07:18:40;5.87;;;5.37;;
21593;SDS011;10959;51.328;7.322;2023-10-31T07:21:07;5.43;;;4.93;;
21593;SDS011;10959;51.328;7.322;2023-10-31T07:23:33;6.80;;;6.20;;
21593;SDS011;10959;51.328;7.322;2023-10-31T07:26:00;5.67;;;5.20;;
21593;SDS011;10959;51.328;7.322;2023-10-31T07:28:26;5.27;;;4.70;;
21593;SDS011;10959;51.328;7.322;2023-10-31T07:30:54;6.23;;;5.73;;
21593;SDS011;10959;51.328;7.322;2023-10-31T07:33:20;6.07;;;5.57;;
21593;SDS011;10959;51.328;7.322;2023-10-31T07:35:47;6.07;;;5.57;;
21593;SDS011;10959;51.328;7.322;2023-10-31T07:38:13;5.93;;;5.33;;
21593;SDS011;10959;51.328;7.322;2023-10-31T07:40:40;5.47;;;5.00;;
21593;SDS011;10959;51.328;7.322;2023-10-31T07:43:06;6.80;;;6.20;;
21593;SDS011;10959;51.328;7.322;2023-10-31T07:45:33;6.23;;;5.63;;
21593;SDS011;10959;51.328;7.322;2023-10-31T07:48:02;5.87;;;5.37;;
21593;SDS011;10959;51.328;7.322;2023-10-31T07:50:28;8.97;;;5.97;;
21593;SDS011;10959;51.328;7.322;2023-10-31T07:52:55;6.97;;;6.27;;
21593;SDS011;10959;51.328;7.322;2023-10-31T07:55:21;7.03;;;6.43;;
21593;SDS011;10959;51.328;7.322;2023-10-31T07:57:47;8.00;;;7.30;;
21593;SDS011;10959;51.328;7.322;2023-10-31T08:00:14;8.47;;;7.70;;
21593;SDS011;10959;51.328;7.322;2023-10-31T08:02:41;8.93;;;7.67;;
21593;SDS011;10959;51.328;7.322;2023-10-31T08:05:09;8.03;;;7.37;;
21593;SDS011;10959;51.328;7.322;2023-10-31T08:07:36;7.83;;;7.23;;
21593;SDS011;10959;51.328;7.322;2023-10-31T08:10:03;7.73;;;7.13;;
21593;SDS011;10959;51.328;7.322;2023-10-31T08:12:30;7.50;;;6.90;;
21593;SDS011;10959;51.328;7.322;2023-10-31T08:14:57;7.73;;;7.07;;
21593;SDS011;10959;51.328;7.322;2023-10-31T08:17:24;8.70;;;8.00;;
21593;SDS011;10959;51.328;7.322;2023-10-31T08:19:51;8.07;;;7.47;;
21593;SDS011;10959;51.328;7.322;2023-10-31T08:22:19;8.13;;;7.43;;
21593;SDS011;10959;51.328;7.322;2023-10-31T08:24:45;8.03;;;7.33;;
21593;SDS011;10959;51.328;7.322;2023-10-31T08:27:12;7.10;;;6.47;;
21593;SDS011;10959;51.328;7.322;2023-10-31T08:29:38;7.50;;;6.80;;
21593;SDS011;10959;51.328;7.322;2023-10-31T08:32:05;7.50;;;6.90;;
21593;SDS011;10959;51.328;7.322;2023-10-31T08:34:32;8.87;;;8.07;;
21593;SDS011;10959;51.328;7.322;2023-10-31T08:36:58;7.67;;;6.97;;
21593;SDS011;10959;51.328;7.322;2023-10-31T08:39:26;8.30;;;7.60;;
21593;SDS011;10959;51.328;7.322;2023-10-31T08:41:53;7.53;;;6.93;;
21593;SDS011;10959;51.328;7.322;2023-10-31T08:44:20;7.47;;;6.87;;
21593;SDS011;10959;51.328;7.322;2023-10-31T08:46:46;9.30;;;8.37;;
21593;SDS011;10959;51.328;7.322;2023-10-31T08:49:12;8.87;;;8.07;;
21593;SDS011;10959;51.328;7.322;2023-10-31T08:51:39;7.80;;;7.13;;
21593;SDS011;10959;51.328;7.322;2023-10-31T08:54:05;8.83;;;8.03;;
21593;SDS011;10959;51.328;7.322;2023-10-31T08:56:33;8.20;;;7.50;;
21593;SDS011;10959;51.328;7.322;2023-10-31T08:59:00;7.23;;;6.70;;
21593;SDS011;10959;51.328;7.322;2023-10-31T09:01:26;7.20;;;6.60;;
21593;SDS011;10959;51.328;7.322;2023-10-31T09:03:54;7.97;;;7.30;;
21593;SDS011;10959;51.328;7.322;2023-10-31T09:06:20;6.67;;;6.13;;
21593;SDS011;10959;51.328;7.322;2023-10-31T09:08:47;6.83;;;6.23;;
21593;SDS011;10959;51.328;7.322;2023-10-31T09:11:13;7.07;;;6.37;;
21593;SDS011;10959;51.328;7.322;2023-10-31T09:13:41;6.33;;;5.63;;
21593;SDS011;10959;51.328;7.322;2023-10-31T09:16:08;6.47;;;5.97;;
21593;SDS011;10959;51.328;7.322;2023-10-31T09:18:35;5.97;;;5.47;;
21593;SDS011;10959;51.328;7.322;2023-10-31T09:21:01;6.40;;;5.73;;
21593;SDS011;10959;51.328;7.322;2023-10-31T09:23:28;5.87;;;5.37;;
21593;SDS011;10959;51.328;7.322;2023-10-31T09:25:54;6.30;;;5.80;;
21593;SDS011;10959;51.328;7.322;2023-10-31T09:28:21;5.97;;;5.40;;
21593;SDS011;10959;51.328;7.322;2023-10-31T09:30:49;6.93;;;6.23;;
21593;SDS011;10959;51.328;7.322;2023-10-31T09:33:15;7.10;;;6.50;;
21593;SDS011;10959;51.328;7.322;2023-10-31T09:35:42;6.90;;;6.30;;
21593;SDS011;10959;51.328;7.322;2023-10-31T09:38:09;7.77;;;7.07;;
21593;SDS011;10959;51.328;7.322;2023-10-31T09:40:36;8.53;;;7.83;;
21593;SDS011;10959;51.328;7.322;2023-10-31T09:43:03;8.33;;;7.53;;
21593;SDS011;10959;51.328;7.322;2023-10-31T09:45:29;7.30;;;6.70;;
21593;SDS011;10959;51.328;7.322;2023-10-31T09:47:57;7.27;;;6.47;;
21593;SDS011;10959;51.328;7.322;2023-10-31T09:50:27;7.70;;;6.97;;
21593;SDS011;10959;51.328;7.322;2023-10-31T09:52:55;6.53;;;5.93;;
21593;SDS011;10959;51.328;7.322;2023-10-31T09:55:22;7.97;;;6.80;;
21593;SDS011;10959;51.328;7.322;2023-10-31T09:57:50;7.17;;;6.47;;
21593;SDS011;10959;51.328;7.322;2023-10-31T10:00:17;7.77;;;7.07;;
21593;SDS011;10959;51.328;7.322;2023-10-31T10:02:44;8.30;;;7.50;;
21593;SDS011;10959;51.328;7.322;2023-10-31T10:05:12;7.80;;;7.10;;
21593;SDS011;10959;51.328;7.322;2023-10-31T10:07:42;7.37;;;6.30;;
21593;SDS011;10959;51.328;7.322;2023-10-31T10:10:09;7.27;;;6.43;;
21593;SDS011;10959;51.328;7.322;2023-10-31T10:12:36;7.83;;;7.13;;
21593;SDS011;10959;51.328;7.322;2023-10-31T10:15:03;8.17;;;7.47;;
21593;SDS011;10959;51.328;7.322;2023-10-31T10:17:30;8.07;;;7.27;;
21593;SDS011;10959;51.328;7.322;2023-10-31T10:20:05;8.10;;;7.30;;
21593;SDS011;10959;51.328;7.322;2023-10-31T10:22:36;7.70;;;6.90;;
21593;SDS011;10959;51.328;7.322;2023-10-31T10:25:04;6.83;;;5.97;;
21593;SDS011;10959;51.328;7.322;2023-10-31T10:27:31;7.13;;;6.53;;
21593;SDS011;10959;51.328;7.322;2023-10-31T10:29:58;7.33;;;6.23;;
21593;SDS011;10959;51.328;7.322;2023-10-31T10:32:24;7.60;;;6.27;;
21593;SDS011;10959;51.328;7.322;2023-10-31T10:34:51;8.07;;;7.27;;
21593;SDS011;10959;51.328;7.322;2023-10-31T10:37:18;8.20;;;7.40;;
21593;SDS011;10959;51.328;7.322;2023-10-31T10:39:47;9.30;;;8.30;;
21593;SDS011;10959;51.328;7.322;2023-10-31T10:42:14;9.80;;;8.13;;
21593;SDS011;10959;51.328;7.322;2023-10-31T10:44:44;9.47;;;8.03;;
21593;SDS011;10959;51.328;7.322;2023-10-31T10:47:12;7.20;;;6.50;;
21593;SDS011;10959;51.328;7.322;2023-10-31T10:49:41;7.83;;;6.33;;
21593;SDS011;10959;51.328;7.322;2023-10-31T10:52:17;9.63;;;6.77;;
21593;SDS011;10959;51.328;7.322;2023-10-31T10:54:53;6.70;;;6.10;;
21593;SDS011;10959;51.328;7.322;2023-10-31T10:57:28;5.93;;;5.20;;
21593;SDS011;10959;51.328;7.322;2023-10-31T11:00:02;6.30;;;5.70;;
21593;SDS011;10959;51.328;7.322;2023-10-31T11:02:31;6.53;;;5.40;;
21593;SDS011;10959;51.328;7.322;2023-10-31T11:04:58;6.53;;;5.93;;
21593;SDS011;10959;51.328;7.322;2023-10-31T11:07:25;8.20;;;5.60;;
21593;SDS011;10959;51.328;7.322;2023-10-31T11:09:55;7.87;;;5.77;;
21593;SDS011;10959;51.328;7.322;2023-10-31T11:12:22;6.73;;;4.43;;
21593;SDS011;10959;51.328;7.322;2023-10-31T11:14:49;5.37;;;4.27;;
21593;SDS011;10959;51.328;7.322;2023-10-31T11:17:18;5.37;;;4.87;;
21593;SDS011;10959;51.328;7.322;2023-10-31T11:19:50;7.03;;;4.57;;
21593;SDS011;10959;51.328;7.322;2023-10-31T11:22:17;7.50;;;4.93;;
21593;SDS011;10959;51.328;7.322;2023-10-31T11:24:44;7.00;;;4.53;;
21593;SDS011;10959;51.328;7.322;2023-10-31T11:27:12;6.03;;;4.03;;
21593;SDS011;10959;51.328;7.322;2023-10-31T11:29:38;5.93;;;4.30;;
21593;SDS011;10959;51.328;7.322;2023-10-31T11:32:07;7.83;;;4.33;;
21593;SDS011;10959;51.328;7.322;2023-10-31T11:34:34;4.50;;;4.10;;
21593;SDS011;10959;51.328;7.322;2023-10-31T11:37:19;5.10;;;3.93;;
21593;SDS011;10959;51.328;7.322;2023-10-31T11:42:42;3.40;;;3.10;;
21593;SDS011;10959;51.328;7.322;2023-10-31T11:45:10;3.77;;;3.10;;
21593;SDS011;10959;51.328;7.322;2023-10-31T11:47:46;3.80;;;2.70;;
21593;SDS011;10959;51.328;7.322;2023-10-31T11:50:12;4.43;;;3.00;;
21593;SDS011;10959;51.328;7.322;2023-10-31T11:52:39;2.97;;;2.27;;
21593;SDS011;10959;51.328;7.322;2023-10-31T11:55:07;2.77;;;2.53;;
21593;SDS011;10959;51.328;7.322;2023-10-31T11:57:35;4.33;;;2.43;;
21593;SDS011;10959;51.328;7.322;2023-10-31T12:00:03;6.20;;;2.50;;
21593;SDS011;10959;51.328;7.322;2023-10-31T12:02:30;4.70;;;2.40;;
21593;SDS011;10959;51.328;7.322;2023-10-31T12:05:07;3.80;;;2.27;;
21593;SDS011;10959;51.328;7.322;2023-10-31T12:07:41;4.00;;;2.27;;
21593;SDS011;10959;51.328;7.322;2023-10-31T12:10:08;5.03;;;2.30;;
21593;SDS011;10959;51.328;7.322;2023-10-31T12:12:35;3.43;;;2.03;;
21593;SDS011;10959;51.328;7.322;2023-10-31T12:15:06;1.97;;;1.87;;
21593;SDS011;10959;51.328;7.322;2023-10-31T12:17:33;4.00;;;2.10;;
21593;SDS011;10959;51.328;7.322;2023-10-31T12:20:02;3.07;;;1.97;;
21593;SDS011;10959;51.328;7.322;2023-10-31T12:22:29;2.50;;;1.87;;
21593;SDS011;10959;51.328;7.322;2023-10-31T12:24:59;1.83;;;1.73;;
21593;SDS011;10959;51.328;7.322;2023-10-31T12:27:41;3.77;;;1.87;;
21593;SDS011;10959;51.328;7.322;2023-10-31T12:30:10;3.97;;;1.63;;
21593;SDS011;10959;51.328;7.322;2023-10-31T12:32:37;2.83;;;1.67;;
21593;SDS011;10959;51.328;7.322;2023-10-31T12:35:04;6.07;;;1.93;;
21593;SDS011;10959;51.328;7.322;2023-10-31T12:37:32;2.57;;;2.10;;
21593;SDS011;10959;51.328;7.322;2023-10-31T12:39:59;3.83;;;2.30;;
21593;SDS011;10959;51.328;7.322;2023-10-31T12:42:29;2.97;;;2.20;;
21593;SDS011;10959;51.328;7.322;2023-10-31T12:44:57;2.67;;;1.90;;
21593;SDS011;10959;51.328;7.322;2023-10-31T12:47:25;3.20;;;2.10;;
21593;SDS011;10959;51.328;7.322;2023-10-31T12:50:08;2.63;;;2.40;;
21593;SDS011;10959;51.328;7.322;2023-10-31T12:55:24;4.37;;;2.80;;
21593;SDS011;10959;51.328;7.322;2023-10-31T12:57:52;6.53;;;2.80;;
21593;SDS011;10959;51.328;7.322;2023-10-31T13:00:19;3.77;;;2.80;;
21593;SDS011;10959;51.328;7.322;2023-10-31T13:02:51;3.23;;;2.73;;
21593;SDS011;10959;51.328;7.322;2023-10-31T13:05:18;2.97;;;2.30;;
21593;SDS011;10959;51.328;7.322;2023-10-31T13:07:48;3.43;;;2.80;;
21593;SDS011;10959;51.328;7.322;2023-10-31T13:10:16;2.40;;;1.70;;
21593;SDS011;10959;51.328;7.322;2023-10-31T13:12:43;3.87;;;2.20;;
21593;SDS011;10959;51.328;7.322;2023-10-31T13:15:11;3.23;;;2.07;;
21593;SDS011;10959;51.328;7.322;2023-10-31T13:17:37;2.30;;;2.10;;
21593;SDS011;10959;51.328;7.322;2023-10-31T13:20:06;2.70;;;2.03;;
21593;SDS011;10959;51.328;7.322;2023-10-31T13:22:34;3.20;;;1.50;;
21593;SDS011;10959;51.328;7.322;2023-10-31T13:25:00;3.70;;;2.50;;
21593;SDS011;10959;51.328;7.322;2023-10-31T13:27:29;2.03;;;1.67;;
21593;SDS011;10959;51.328;7.322;2023-10-31T13:29:56;3.33;;;1.87;;
21593;SDS011;10959;51.328;7.322;2023-10-31T13:32:22;2.50;;;2.03;;
21593;SDS011;10959;51.328;7.322;2023-10-31T13:34:49;3.37;;;1.53;;
21593;SDS011;10959;51.328;7.322;2023-10-31T13:37:17;2.33;;;1.60;;
21593;SDS011;10959;51.328;7.322;2023-10-31T13:39:43;2.87;;;1.83;;
21593;SDS011;10959;51.328;7.322;2023-10-31T13:42:10;3.07;;;1.80;;
21593;SDS011;10959;51.328;7.322;2023-10-31T13:44:36;2.60;;;1.77;;
21593;SDS011;10959;51.328;7.322;2023-10-31T13:47:03;3.33;;;1.60;;
21593;SDS011;10959;51.328;7.322;2023-10-31T13:49:30;1.60;;;1.50;;
21593;SDS011;10959;51.328;7.322;2023-10-31T13:51:56;2.37;;;1.70;;
21593;SDS011;10959;51.328;7.322;2023-10-31T13:54:24;2.00;;;1.57;;
21593;SDS011;10959;51.328;7.322;2023-10-31T13:56:50;2.23;;;1.30;;
21593;SDS011;10959;51.328;7.322;2023-10-31T13:59:17;3.23;;;1.93;;
21593;SDS011;10959;51.328;7.322;2023-10-31T14:01:44;1.80;;;1.30;;
21593;SDS011;10959;51.328;7.322;2023-10-31T14:04:11;3.40;;;1.60;;
21593;SDS011;10959;51.328;7.322;2023-10-31T14:06:39;2.83;;;1.63;;
21593;SDS011;10959;51.328;7.322;2023-10-31T14:09:07;1.90;;;1.40;;
21593;SDS011;10959;51.328;7.322;2023-10-31T14:11:36;3.43;;;1.47;;
21593;SDS011;10959;51.328;7.322;2023-10-31T14:14:02;3.77;;;1.70;;
21593;SDS011;10959;51.328;7.322;2023-10-31T14:16:31;3.17;;;1.93;;
21593;SDS011;10959;51.328;7.322;2023-10-31T14:18:58;3.23;;;1.80;;
21593;SDS011;10959;51.328;7.322;2023-10-31T14:21:24;3.30;;;1.63;;
21593;SDS011;10959;51.328;7.322;2023-10-31T14:23:51;4.23;;;1.40;;
21593;SDS011;10959;51.328;7.322;2023-10-31T14:26:19;1.50;;;1.20;;
21593;SDS011;10959;51.328;7.322;2023-10-31T14:28:47;2.67;;;1.60;;
21593;SDS011;10959;51.328;7.322;2023-10-31T14:31:14;2.43;;;1.53;;
21593;SDS011;10959;51.328;7.322;2023-10-31T14:33:40;3.53;;;1.50;;
21593;SDS011;10959;51.328;7.322;2023-10-31T14:36:07;2.37;;;1.73;;
21593;SDS011;10959;51.328;7.322;2023-10-31T14:38:36;4.70;;;1.60;;
21593;SDS011;10959;51.328;7.322;2023-10-31T14:41:03;2.03;;;1.30;;
21593;SDS011;10959;51.328;7.322;2023-10-31T14:43:30;2.43;;;1.50;;
21593;SDS011;10959;51.328;7.322;2023-10-31T14:45:58;3.47;;;1.73;;
21593;SDS011;10959;51.328;7.322;2023-10-31T14:48:24;2.83;;;1.47;;
21593;SDS011;10959;51.328;7.322;2023-10-31T14:50:51;4.47;;;1.73;;
21593;SDS011;10959;51.328;7.322;2023-10-31T14:53:18;1.77;;;1.60;;
21593;SDS011;10959;51.328;7.322;2023-10-31T14:55:45;2.83;;;1.50;;
21593;SDS011;10959;51.328;7.322;2023-10-31T14:58:12;3.93;;;1.50;;
21593;SDS011;10959;51.328;7.322;2023-10-31T15:00:40;3.60;;;1.70;;
21593;SDS011;10959;51.328;7.322;2023-10-31T15:03:08;3.47;;;1.50;;
21593;SDS011;10959;51.328;7.322;2023-10-31T15:05:34;4.50;;;1.90;;
21593;SDS011;10959;51.328;7.322;2023-10-31T15:08:01;5.07;;;1.93;;
21593;SDS011;10959;51.328;7.322;2023-10-31T15:10:27;3.00;;;2.03;;
21593;SDS011;10959;51.328;7.322;2023-10-31T15:12:54;3.30;;;1.97;;
21593;SDS011;10959;51.328;7.322;2023-10-31T15:15:21;6.60;;;1.50;;
21593;SDS011;10959;51.328;7.322;2023-10-31T15:17:48;1.87;;;1.40;;
21593;SDS011;10959;51.328;7.322;2023-10-31T15:20:18;2.27;;;1.23;;
21593;SDS011;10959;51.328;7.322;2023-10-31T15:22:44;3.37;;;1.60;;
21593;SDS011;10959;51.328;7.322;2023-10-31T15:25:11;2.53;;;2.10;;
21593;SDS011;10959;51.328;7.322;2023-10-31T15:27:38;3.80;;;1.77;;
21593;SDS011;10959;51.328;7.322;2023-10-31T15:30:06;4.17;;;1.90;;
21593;SDS011;10959;51.328;7.322;2023-10-31T15:32:33;2.20;;;1.40;;
21593;SDS011;10959;51.328;7.322;2023-10-31T15:35:00;3.83;;;1.63;;
21593;SDS011;10959;51.328;7.322;2023-10-31T15:37:27;3.77;;;1.83;;
21593;SDS011;10959;51.328;7.322;2023-10-31T15:39:54;3.00;;;1.83;;
21593;SDS011;10959;51.328;7.322;2023-10-31T15:42:20;4.93;;;1.80;;
21593;SDS011;10959;51.328;7.322;2023-10-31T15:44:47;3.07;;;1.70;;
21593;SDS011;10959;51.328;7.322;2023-10-31T15:47:13;3.40;;;1.53;;
21593;SDS011;10959;51.328;7.322;2023-10-31T15:49:40;5.40;;;1.80;;
21593;SDS011;10959;51.328;7.322;2023-10-31T15:52:06;3.27;;;1.60;;
21593;SDS011;10959;51.328;7.322;2023-10-31T15:54:34;2.97;;;1.70;;
21593;SDS011;10959;51.328;7.322;2023-10-31T15:57:00;3.13;;;1.70;;
21593;SDS011;10959;51.328;7.322;2023-10-31T15:59:27;2.60;;;1.50;;
21593;SDS011;10959;51.328;7.322;2023-10-31T16:01:53;3.63;;;1.67;;
21593;SDS011;10959;51.328;7.322;2023-10-31T16:04:20;5.23;;;2.03;;
21593;SDS011;10959;51.328;7.322;2023-10-31T16:06:48;4.67;;;1.87;;
21593;SDS011;10959;51.328;7.322;2023-10-31T16:09:15;3.60;;;1.77;;
21593;SDS011;10959;51.328;7.322;2023-10-31T16:11:42;4.17;;;1.83;;
21593;SDS011;10959;51.328;7.322;2023-10-31T16:14:09;3.93;;;1.70;;
21593;SDS011;10959;51.328;7.322;2023-10-31T16:16:35;3.30;;;1.80;;
21593;SDS011;10959;51.328;7.322;2023-10-31T16:19:02;3.70;;;1.70;;
21593;SDS011;10959;51.328;7.322;2023-10-31T16:21:28;3.90;;;1.80;;
21593;SDS011;10959;51.328;7.322;2023-10-31T16:23:55;3.77;;;1.97;;
21593;SDS011;10959;51.328;7.322;2023-10-31T16:26:23;3.93;;;2.10;;
21593;SDS011;10959;51.328;7.322;2023-10-31T16:28:51;4.10;;;2.50;;
21593;SDS011;10959;51.328;7.322;2023-10-31T16:31:17;3.93;;;2.20;;
21593;SDS011;10959;51.328;7.322;2023-10-31T16:33:45;4.43;;;1.80;;
21593;SDS011;10959;51.328;7.322;2023-10-31T16:36:11;3.17;;;1.70;;
21593;SDS011;10959;51.328;7.322;2023-10-31T16:38:38;3.60;;;1.67;;
21593;SDS011;10959;51.328;7.322;2023-10-31T16:41:05;4.07;;;2.30;;
21593;SDS011;10959;51.328;7.322;2023-10-31T16:43:32;3.40;;;1.83;;
21593;SDS011;10959;51.328;7.322;2023-10-31T16:46:01;3.60;;;2.00;;
21593;SDS011;10959;51.328;7.322;2023-10-31T16:48:27;3.00;;;1.60;;
21593;SDS011;10959;51.328;7.322;2023-10-31T16:50:54;5.33;;;2.23;;
21593;SDS011;10959;51.328;7.322;2023-10-31T16:53:20;3.83;;;2.20;;
21593;SDS011;10959;51.328;7.322;2023-10-31T16:55:47;4.73;;;2.40;;
21593;SDS011;10959;51.328;7.322;2023-10-31T16:58:13;3.67;;;2.40;;
21593;SDS011;10959;51.328;7.322;2023-10-31T17:00:41;2.53;;;2.00;;
21593;SDS011;10959;51.328;7.322;2023-10-31T17:03:09;4.00;;;2.17;;
21593;SDS011;10959;51.328;7.322;2023-10-31T17:05:39;6.03;;;2.70;;
21593;SDS011;10959;51.328;7.322;2023-10-31T17:08:06;3.97;;;2.40;;
21593;SDS011;10959;51.328;7.322;2023-10-31T17:10:32;2.87;;;2.20;;
21593;SDS011;10959;51.328;7.322;2023-10-31T17:12:59;4.27;;;2.70;;
21593;SDS011;10959;51.328;7.322;2023-10-31T17:15:25;4.60;;;2.57;;
21593;SDS011;10959;51.328;7.322;2023-10-31T17:17:52;5.90;;;3.00;;
21593;SDS011;10959;51.328;7.322;2023-10-31T17:20:20;3.97;;;2.97;;
21593;SDS011;10959;51.328;7.322;2023-10-31T17:22:46;5.07;;;3.03;;
21593;SDS011;10959;51.328;7.322;2023-10-31T17:25:13;2.87;;;2.60;;
21593;SDS011;10959;51.328;7.322;2023-10-31T17:27:40;6.60;;;2.70;;
21593;SDS011;10959;51.328;7.322;2023-10-31T17:30:07;3.50;;;2.33;;
21593;SDS011;10959;51.328;7.322;2023-10-31T17:32:34;3.30;;;3.00;;
21593;SDS011;10959;51.328;7.322;2023-10-31T17:35:00;5.67;;;3.60;;
21593;SDS011;10959;51.328;7.322;2023-10-31T17:37:28;5.27;;;3.70;;
21593;SDS011;10959;51.328;7.322;2023-10-31T17:39:54;5.10;;;3.50;;
21593;SDS011;10959;51.328;7.322;2023-10-31T17:42:21;5.90;;;3.60;;
21593;SDS011;10959;51.328;7.322;2023-10-31T17:44:50;4.73;;;4.23;;
21593;SDS011;10959;51.328;7.322;2023-10-31T17:47:16;4.53;;;3.00;;
21593;SDS011;10959;51.328;7.322;2023-10-31T17:49:44;3.73;;;3.20;;
21593;SDS011;10959;51.328;7.322;2023-10-31T17:52:11;4.27;;;2.63;;
21593;SDS011;10959;51.328;7.322;2023-10-31T17:54:39;3.37;;;2.97;;
21593;SDS011;10959;51.328;7.322;2023-10-31T17:57:06;5.10;;;3.03;;
21593;SDS011;10959;51.328;7.322;2023-10-31T17:59:33;3.67;;;2.53;;
21593;SDS011;10959;51.328;7.322;2023-10-31T18:01:59;4.03;;;3.17;;
21593;SDS011;10959;51.328;7.322;2023-10-31T18:04:26;4.40;;;3.87;;
21593;SDS011;10959;51.328;7.322;2023-10-31T18:06:52;4.87;;;4.10;;
21593;SDS011;10959;51.328;7.322;2023-10-31T18:09:19;6.37;;;4.30;;
21593;SDS011;10959;51.328;7.322;2023-10-31T18:11:47;4.37;;;3.87;;
21593;SDS011;10959;51.328;7.322;2023-10-31T18:14:13;4.07;;;3.20;;
21593;SDS011;10959;51.328;7.322;2023-10-31T18:16:40;3.57;;;2.90;;
21593;SDS011;10959;51.328;7.322;2023-10-31T18:19:06;6.13;;;4.03;;
21593;SDS011;10959;51.328;7.322;2023-10-31T18:21:34;3.70;;;3.40;;
21593;SDS011;10959;51.328;7.322;2023-10-31T18:24:00;4.47;;;3.93;;
21593;SDS011;10959;51.328;7.322;2023-10-31T18:26:27;5.00;;;4.50;;
21593;SDS011;10959;51.328;7.322;2023-10-31T18:28:55;5.33;;;4.27;;
21593;SDS011;10959;51.328;7.322;2023-10-31T18:31:22;4.43;;;4.03;;
21593;SDS011;10959;51.328;7.322;2023-10-31T18:33:48;3.93;;;3.50;;
21593;SDS011;10959;51.328;7.322;2023-10-31T18:36:15;4.57;;;3.47;;
21593;SDS011;10959;51.328;7.322;2023-10-31T18:38:41;4.17;;;3.37;;
21593;SDS011;10959;51.328;7.322;2023-10-31T18:41:08;4.33;;;3.93;;
21593;SDS011;10959;51.328;7.322;2023-10-31T18:43:34;6.57;;;4.77;;
21593;SDS011;10959;51.328;7.322;2023-10-31T18:46:02;4.00;;;3.60;;
21593;SDS011;10959;51.328;7.322;2023-10-31T18:48:29;4.70;;;3.83;;
21593;SDS011;10959;51.328;7.322;2023-10-31T18:50:56;4.67;;;4.27;;
21593;SDS011;10959;51.328;7.322;2023-10-31T18:53:22;4.90;;;4.37;;
21593;SDS011;10959;51.328;7.322;2023-10-31T18:55:49;5.20;;;4.53;;
21593;SDS011;10959;51.328;7.322;2023-10-31T18:58:15;5.37;;;4.77;;
21593;SDS011;10959;51.328;7.322;2023-10-31T19:00:42;6.33;;;4.73;;
21593;SDS011;10959;51.328;7.322;2023-10-31T19:03:10;4.60;;;4.20;;
21593;SDS011;10959;51.328;7.322;2023-10-31T19:05:36;5.00;;;4.50;;
21593;SDS011;10959;51.328;7.322;2023-10-31T19:08:03;4.90;;;4.03;;
21593;SDS011;10959;51.328;7.322;2023-10-31T19:10:30;5.03;;;3.57;;
21593;SDS011;10959;51.328;7.322;2023-10-31T19:12:57;4.23;;;3.47;;
21593;SDS011;10959;51.328;7.322;2023-10-31T19:15:23;4.30;;;3.90;;
21593;SDS011;10959;51.328;7.322;2023-10-31T19:17:50;4.80;;;4.17;;
21593;SDS011;10959;51.328;7.322;2023-10-31T19:20:18;5.27;;;3.87;;
21593;SDS011;10959;51.328;7.322;2023-10-31T19:22:45;4.73;;;3.67;;
21593;SDS011;10959;51.328;7.322;2023-10-31T19:25:11;6.50;;;3.90;;
21593;SDS011;10959;51.328;7.322;2023-10-31T19:27:38;4.03;;;3.47;;
21593;SDS011;10959;51.328;7.322;2023-10-31T19:30:05;6.27;;;3.90;;
21593;SDS011;10959;51.328;7.322;2023-10-31T19:32:33;4.37;;;3.53;;
21593;SDS011;10959;51.328;7.322;2023-10-31T19:35:00;4.17;;;3.73;;
21593;SDS011;10959;51.328;7.322;2023-10-31T19:37:29;5.93;;;5.37;;
21593;SDS011;10959;51.328;7.322;2023-10-31T19:39:56;6.47;;;5.87;;
21593;SDS011;10959;51.328;7.322;2023-10-31T19:42:22;6.40;;;5.67;;
21593;SDS011;10959;51.328;7.322;2023-10-31T19:44:49;6.67;;;6.07;;
21593;SDS011;10959;51.328;7.322;2023-10-31T19:47:16;7.13;;;6.30;;
21593;SDS011;10959;51.328;7.322;2023-10-31T19:49:42;7.90;;;7.10;;
21593;SDS011;10959;51.328;7.322;2023-10-31T19:52:09;8.73;;;7.93;;
21593;SDS011;10959;51.328;7.322;2023-10-31T19:54:36;9.17;;;7.80;;
21593;SDS011;10959;51.328;7.322;2023-10-31T19:57:03;7.30;;;6.40;;
21593;SDS011;10959;51.328;7.322;2023-10-31T19:59:30;6.80;;;6.20;;
21593;SDS011;10959;51.328;7.322;2023-10-31T20:01:56;6.67;;;6.07;;
21593;SDS011;10959;51.328;7.322;2023-10-31T20:04:23;6.90;;;5.90;;
21593;SDS011;10959;51.328;7.322;2023-10-31T20:06:49;6.93;;;6.13;;
21593;SDS011;10959;51.328;7.322;2023-10-31T20:09:16;7.00;;;6.20;;
21593;SDS011;10959;51.328;7.322;2023-10-31T20:11:44;6.73;;;6.07;;
21593;SDS011;10959;51.328;7.322;2023-10-31T20:14:11;6.87;;;6.07;;
21593;SDS011;10959;51.328;7.322;2023-10-31T20:16:38;9.53;;;6.47;;
21593;SDS011;10959;51.328;7.322;2023-10-31T20:19:04;7.07;;;6.10;;
21593;SDS011;10959;51.328;7.322;2023-10-31T20:21:33;6.93;;;6.17;;
21593;SDS011;10959;51.328;7.322;2023-10-31T20:24:00;6.30;;;5.30;;
21593;SDS011;10959;51.328;7.322;2023-10-31T20:26:27;6.50;;;5.97;;
21593;SDS011;10959;51.328;7.322;2023-10-31T20:28:55;6.13;;;5.40;;
21593;SDS011;10959;51.328;7.322;2023-10-31T20:31:22;6.97;;;5.03;;
21593;SDS011;10959;51.328;7.322;2023-10-31T20:33:49;5.83;;;4.70;;
21593;SDS011;10959;51.328;7.322;2023-10-31T20:36:16;5.07;;;4.57;;
21593;SDS011;10959;51.328;7.322;2023-10-31T20:38:43;5.83;;;4.50;;
21593;SDS011;10959;51.328;7.322;2023-10-31T20:41:09;4.57;;;4.17;;
21593;SDS011;10959;51.328;7.322;2023-10-31T20:43:36;7.77;;;5.10;;
21593;SDS011;10959;51.328;7.322;2023-10-31T20:46:04;5.67;;;5.10;;
21593;SDS011;10959;51.328;7.322;2023-10-31T20:48:30;5.70;;;5.13;;
21593;SDS011;10959;51.328;7.322;2023-10-31T20:50:56;6.07;;;5.10;;
21593;SDS011;10959;51.328;7.322;2023-10-31T20:53:23;5.87;;;4.63;;
21593;SDS011;10959;51.328;7.322;2023-10-31T20:55:50;6.00;;;4.63;;
21593;SDS011;10959;51.328;7.322;2023-10-31T20:58:16;7.57;;;6.03;;
21593;SDS011;10959;51.328;7.322;2023-10-31T21:00:44;6.30;;;4.67;;
21593;SDS011;10959;51.328;7.322;2023-10-31T21:03:12;5.50;;;4.97;;
21593;SDS011;10959;51.328;7.322;2023-10-31T21:05:39;5.97;;;4.37;;
21593;SDS011;10959;51.328;7.322;2023-10-31T21:08:05;7.07;;;5.23;;
21593;SDS011;10959;51.328;7.322;2023-10-31T21:10:32;6.27;;;4.83;;
21593;SDS011;10959;51.328;7.322;2023-10-31T21:12:58;6.80;;;4.60;;
21593;SDS011;10959;51.328;7.322;2023-10-31T21:15:25;5.50;;;4.50;;
21593;SDS011;10959;51.328;7.322;2023-10-31T21:17:51;5.97;;;5.33;;
21593;SDS011;10959;51.328;7.322;2023-10-31T21:20:19;5.13;;;4.30;;
21593;SDS011;10959;51.328;7.322;2023-10-31T21:22:46;4.67;;;4.07;;
21593;SDS011;10959;51.328;7.322;2023-10-31T21:25:13;7.37;;;4.13;;
21593;SDS011;10959;51.328;7.322;2023-10-31T21:27:40;5.83;;;4.63;;
21593;SDS011;10959;51.328;7.322;2023-10-31T21:30:08;6.27;;;4.97;;
21593;SDS011;10959;51.328;7.322;2023-10-31T21:32:35;5.93;;;4.70;;